Facebook Twitter

Wetterstation Ried i.Innkreis

aktuelles Wetter
  Temperatur Wetter Niederschlag Luftdruck Wind
Mo, 09:00 Uhr 4° - 0 mm 1027.8 hPa 0 km/h
Mo, 08:00 Uhr 3° - 0 mm 1027.1 hPa 0 km/h
Mo, 07:00 Uhr 4° - 0 mm 1026.2 hPa 0 km/h
Mo, 06:00 Uhr 4° - 0 mm 1025.6 hPa 0 km/h
Mo, 05:00 Uhr 3° - 0 mm 1025.2 hPa 0 km/h
Mo, 04:00 Uhr 3° - 0 mm 1025.2 hPa 0 km/h
Mo, 03:00 Uhr 3° - 0 mm 1025.1 hPa 0 km/h
Mo, 02:00 Uhr 3° - 0 mm 1025.1 hPa 4 km/h S
Mo, 01:00 Uhr 3° - 0 mm 1024.9 hPa 0 km/h S
Mo, 00:00 Uhr 3° - 0 mm 1024.7 hPa 0 km/h S
So, 23:00 Uhr 3° - 0 mm 1024.2 hPa 0 km/h S
So, 22:00 Uhr 4° - 0 mm 1023.7 hPa 0 km/h S
So, 21:00 Uhr 5° - 0 mm 1023 hPa 0 km/h S
So, 20:00 Uhr 6° - 0 mm 1022.4 hPa 0 km/h S
So, 19:00 Uhr 8° - 0 mm 1021.6 hPa 0 km/h S
So, 18:00 Uhr 11° - 0 mm 1021 hPa 0 km/h S
So, 17:00 Uhr 12° - 0 mm 1020.5 hPa 0 km/h S
So, 16:00 Uhr 12° - 0 mm 1020.4 hPa 0 km/h S
So, 15:00 Uhr 10° - 0 mm 1021.2 hPa 4 km/h NO
So, 14:00 Uhr 9° - 0 mm 1021.8 hPa 4 km/h N

Alle Zeitangaben MESZ